Time;durP1;ratioP1;P1;durP2;ratioP2;P2;SDS_P1;SDS_P2;PMS_P1;PMS_P2;Temp;Humidity;BMP_temperature;BMP_pressure;BME280_temperature;BME280_humidity;BME280_pressure;Samples;Min_cycle;Max_cycle;Signal;HPM_P1;HPM_P2
2023/04/26 00:02:23;;;;;;;11.82;6.20;;;;;;;;;;5029665;28;20164;-88
2023/04/26 00:04:54;;;;;;;12.13;5.47;;;;;;;;;;5031172;28;20034;-86
2023/04/26 00:07:27;;;;;;;9.65;5.63;;;;;;;;;;5030743;28;20107;-85
2023/04/26 00:09:52;;;;;;;13.00;6.15;;;;;;;;;;5030682;28;20049;-85
2023/04/26 00:12:21;;;;;;;15.35;6.32;;;;;;;;;;5030314;28;20111;-86
2023/04/26 00:14:47;;;;;;;;;;;;;;;;;;5031823;28;20045;-85
2023/04/26 00:17:12;;;;;;;11.70;6.55;;;;;;;;;;5032196;28;20438;-90
2023/04/26 00:19:38;;;;;;;11.98;6.38;;;;;;;;;;5034503;28;20037;-88
2023/04/26 00:22:04;;;;;;;12.05;6.05;;;;;;;;;;5033432;28;20052;-89
2023/04/26 00:24:31;;;;;;;14.80;6.45;;;;;;;;;;5035362;28;20068;-88
2023/04/26 00:26:56;;;;;;;10.88;6.18;;;;;;;;;;5023989;28;20103;-88
2023/04/26 00:29:22;;;;;;;12.82;6.00;;;;;;;;;;5016676;28;20045;-90
2023/04/26 00:31:47;;;;;;;11.57;6.65;;;;;;;;;;5032922;28;20505;-90
2023/04/26 00:34:13;;;;;;;12.35;7.10;;;;;;;;;;5014481;28;20045;-89
2023/04/26 00:36:38;;;;;;;11.05;6.68;;;;;;;;;;5033111;28;20552;-89
2023/04/26 00:39:04;;;;;;;10.15;6.43;;;;;;;;;;5030243;28;20129;-88
2023/04/26 00:41:33;;;;;;;11.20;6.20;;;;;;;;;;5032166;28;20049;-89
2023/04/26 00:43:59;;;;;;;14.98;7.13;;;;;;;;;;5033912;28;20063;-90
2023/04/26 00:46:27;;;;;;;12.32;7.00;;;;;;;;;;5030827;28;20045;-87
2023/04/26 00:48:53;;;;;;;11.52;7.00;;;;;;;;;;5029334;28;20120;-90
2023/04/26 00:51:19;;;;;;;18.35;7.65;;;;;;;;;;5011460;28;20104;-90
2023/04/26 00:53:45;;;;;;;12.75;6.95;;;;;;;;;;5030158;28;20049;-89
2023/04/26 00:56:13;;;;;;;15.75;7.05;;;;;;;;;;5027512;28;20038;-89
2023/04/26 00:58:38;;;;;;;11.15;7.40;;;;;;;;;;5027671;28;20084;-88
2023/04/26 01:01:04;;;;;;;14.15;7.32;;;;;;;;;;5030447;28;20065;-89
2023/04/26 01:03:29;;;;;;;16.08;7.18;;;;;;;;;;5029597;28;20045;-87
2023/04/26 01:05:55;;;;;;;15.85;7.55;;;;;;;;;;5030654;28;20052;-88
2023/04/26 01:08:22;;;;;;;16.38;7.22;;;;;;;;;;5029421;28;20061;-87
2023/04/26 01:10:48;;;;;;;10.40;6.78;;;;;;;;;;5030355;28;20049;-89
2023/04/26 01:13:15;;;;;;;12.40;7.38;;;;;;;;;;5029666;28;20049;-87
2023/04/26 01:15:47;;;;;;;16.30;7.65;;;;;;;;;;5015748;28;20497;-86
2023/04/26 01:18:13;;;;;;;14.05;8.38;;;;;;;;;;5033293;28;20096;-86
2023/04/26 01:20:42;;;;;;;17.83;8.18;;;;;;;;;;5034169;28;20128;-86
2023/04/26 01:23:10;;;;;;;13.35;8.32;;;;;;;;;;5031403;28;20573;-85
2023/04/26 01:25:36;;;;;;;12.77;8.18;;;;;;;;;;5034211;28;20068;-87
2023/04/26 01:28:02;;;;;;;12.60;7.28;;;;;;;;;;5015952;28;20041;-86
2023/04/26 01:30:30;;;;;;;15.15;7.60;;;;;;;;;;5032450;28;20124;-86
2023/04/26 01:32:56;;;;;;;13.27;7.78;;;;;;;;;;5033275;28;20037;-86
2023/04/26 01:35:21;;;;;;;15.07;8.35;;;;;;;;;;5033038;28;20053;-85
2023/04/26 01:37:46;;;;;;;12.48;7.70;;;;;;;;;;5032534;28;20041;-86
2023/04/26 01:40:12;;;;;;;16.65;8.40;;;;;;;;;;5032053;28;20045;-85
2023/04/26 01:42:37;;;;;;;16.33;8.75;;;;;;;;;;5032865;28;20441;-86
2023/04/26 01:45:04;;;;;;;14.20;8.45;;;;;;;;;;5015936;28;20045;-86
2023/04/26 01:47:29;;;;;;;13.98;8.20;;;;;;;;;;5005418;28;20040;-86
2023/04/26 01:49:55;;;;;;;14.77;7.85;;;;;;;;;;5032823;28;20425;-86
2023/04/26 01:52:21;;;;;;;14.98;8.57;;;;;;;;;;5032366;28;20081;-85
2023/04/26 01:54:47;;;;;;;14.60;8.80;;;;;;;;;;5033548;28;20037;-87
2023/04/26 01:57:12;;;;;;;14.60;8.38;;;;;;;;;;5032505;28;20409;-85
2023/04/26 01:59:37;;;;;;;11.73;7.38;;;;;;;;;;5015453;28;20037;-85
2023/04/26 02:02:03;;;;;;;12.25;7.32;;;;;;;;;;5032385;28;20049;-85
2023/04/26 02:04:28;;;;;;;10.82;7.28;;;;;;;;;;5029960;28;20061;-86
2023/04/26 02:06:55;;;;;;;12.68;7.82;;;;;;;;;;5030619;28;20057;-85
2023/04/26 02:09:24;;;;;;;12.27;7.95;;;;;;;;;;5020902;28;20437;-86
2023/04/26 02:11:50;;;;;;;11.50;7.45;;;;;;;;;;5031882;28;20069;-86
2023/04/26 02:14:16;;;;;;;12.40;8.32;;;;;;;;;;5031368;28;20099;-85
2023/04/26 02:16:42;;;;;;;12.95;8.63;;;;;;;;;;5033183;28;20041;-85
2023/04/26 02:19:10;;;;;;;13.75;7.40;;;;;;;;;;5030671;28;20041;-86
2023/04/26 02:21:53;;;;;;;9.43;8.05;;;;;;;;;;5032559;28;20087;-87
2023/04/26 02:24:20;;;;;;;10.13;7.47;;;;;;;;;;5022070;28;20037;-86
2023/04/26 02:26:47;;;;;;;9.75;6.93;;;;;;;;;;5030866;28;20045;-88
2023/04/26 02:29:12;;;;;;;8.98;7.63;;;;;;;;;;5031714;28;20501;-86
2023/04/26 02:31:38;;;;;;;11.10;7.78;;;;;;;;;;5013021;28;20052;-86
2023/04/26 02:34:03;;;;;;;9.85;7.32;;;;;;;;;;5032573;28;20057;-86
2023/04/26 02:36:29;;;;;;;9.55;7.43;;;;;;;;;;5032482;28;20041;-86
2023/04/26 02:38:55;;;;;;;12.32;7.82;;;;;;;;;;5032486;28;20034;-86
2023/04/26 02:41:20;;;;;;;9.45;7.32;;;;;;;;;;5031218;28;20077;-86
2023/04/26 02:43:46;;;;;;;9.13;7.35;;;;;;;;;;5032478;28;20532;-85
2023/04/26 02:46:11;;;;;;;10.68;7.53;;;;;;;;;;5014412;28;20443;-86
2023/04/26 02:48:37;;;;;;;10.05;7.90;;;;;;;;;;5014579;28;20052;-86
2023/04/26 02:51:02;;;;;;;10.65;7.85;;;;;;;;;;5031281;28;20048;-85
2023/04/26 02:53:28;;;;;;;9.48;7.55;;;;;;;;;;5032202;28;20061;-86
2023/04/26 02:55:53;;;;;;;10.63;7.82;;;;;;;;;;5031507;28;20045;-86
2023/04/26 02:58:18;;;;;;;11.45;7.80;;;;;;;;;;5030787;28;20046;-85
2023/04/26 03:00:46;;;;;;;12.73;8.02;;;;;;;;;;5031430;28;20490;-85
2023/04/26 03:03:11;;;;;;;10.55;8.60;;;;;;;;;;5031250;28;20053;-84
2023/04/26 03:05:36;;;;;;;11.65;7.85;;;;;;;;;;5032240;28;20565;-84
2023/04/26 03:08:02;;;;;;;9.43;8.25;;;;;;;;;;5032044;28;20033;-86
2023/04/26 03:10:27;;;;;;;10.00;8.38;;;;;;;;;;5031460;28;20386;-85
2023/04/26 03:12:52;;;;;;;11.65;8.95;;;;;;;;;;5031220;28;20042;-86
2023/04/26 03:15:18;;;;;;;11.65;8.38;;;;;;;;;;5031161;28;20179;-86
2023/04/26 03:17:43;;;;;;;11.10;8.63;;;;;;;;;;5031590;28;20045;-86
2023/04/26 03:20:09;;;;;;;11.52;8.60;;;;;;;;;;5031234;28;20060;-87
2023/04/26 03:22:35;;;;;;;9.98;8.85;;;;;;;;;;5031800;28;20470;-86
2023/04/26 03:25:04;;;;;;;11.85;9.15;;;;;;;;;;5031290;28;20065;-85
2023/04/26 03:27:29;;;;;;;;;;;;;;;;;;5031402;28;20117;-86
2023/04/26 03:29:55;;;;;;;12.75;8.90;;;;;;;;;;5014287;28;20028;-86
2023/04/26 03:32:20;;;;;;;11.63;9.35;;;;;;;;;;5030944;28;20512;-85
2023/04/26 03:34:47;;;;;;;10.55;8.18;;;;;;;;;;5013758;28;20532;-85
2023/04/26 03:37:13;;;;;;;11.32;9.60;;;;;;;;;;5030192;28;20041;-85
2023/04/26 03:39:38;;;;;;;14.15;10.00;;;;;;;;;;5031583;28;20041;-86
2023/04/26 03:42:04;;;;;;;11.98;9.90;;;;;;;;;;5030566;28;20453;-86
2023/04/26 03:44:29;;;;;;;13.48;9.73;;;;;;;;;;5030640;28;20428;-86
2023/04/26 03:46:55;;;;;;;11.98;9.25;;;;;;;;;;5031313;28;20526;-87
2023/04/26 03:49:20;;;;;;;12.68;9.95;;;;;;;;;;5031224;28;20049;-86
2023/04/26 03:51:46;;;;;;;13.80;10.15;;;;;;;;;;5030844;28;20041;-86
2023/04/26 03:54:11;;;;;;;12.82;10.38;;;;;;;;;;5030594;28;20053;-87
2023/04/26 03:56:38;;;;;;;12.90;10.15;;;;;;;;;;5031382;28;20566;-87
2023/04/26 03:59:03;;;;;;;15.45;10.52;;;;;;;;;;5030669;28;20042;-85
2023/04/26 04:01:28;;;;;;;12.57;9.90;;;;;;;;;;5013300;28;20486;-86
2023/04/26 04:03:54;;;;;;;13.40;10.35;;;;;;;;;;5013242;28;20030;-86
2023/04/26 04:06:19;;;;;;;16.42;10.40;;;;;;;;;;5030384;28;20540;-85
2023/04/26 04:08:44;;;;;;;12.95;10.10;;;;;;;;;;5030888;28;20041;-86
2023/04/26 04:11:10;;;;;;;11.57;10.35;;;;;;;;;;5013064;28;20046;-86
2023/04/26 04:13:35;;;;;;;13.68;10.30;;;;;;;;;;5031122;28;20095;-86
2023/04/26 04:16:00;;;;;;;12.30;10.50;;;;;;;;;;5031393;28;20041;-86
2023/04/26 04:18:26;;;;;;;13.88;10.77;;;;;;;;;;5012500;28;20041;-86
2023/04/26 04:20:51;;;;;;;13.07;10.02;;;;;;;;;;5031070;28;20065;-86
2023/04/26 04:23:16;;;;;;;13.63;10.85;;;;;;;;;;5030412;28;20042;-86
2023/04/26 04:25:44;;;;;;;13.23;10.68;;;;;;;;;;5030327;28;20441;-86
2023/04/26 04:28:10;;;;;;;13.30;11.15;;;;;;;;;;5030510;28;20049;-86
2023/04/26 04:30:36;;;;;;;15.70;10.48;;;;;;;;;;5030812;28;20405;-88
2023/04/26 04:33:02;;;;;;;13.75;10.77;;;;;;;;;;5030910;28;20041;-85
2023/04/26 04:35:32;;;;;;;14.52;10.85;;;;;;;;;;5030208;28;20045;-85
2023/04/26 04:37:58;;;;;;;12.00;10.63;;;;;;;;;;5030379;28;20064;-85
2023/04/26 04:40:23;;;;;;;14.88;10.95;;;;;;;;;;5029768;28;20073;-86
2023/04/26 04:42:49;;;;;;;14.15;11.32;;;;;;;;;;5011678;28;20038;-86
2023/04/26 04:45:16;;;;;;;11.88;10.60;;;;;;;;;;5010934;28;20049;-86
2023/04/26 04:47:42;;;;;;;13.02;11.13;;;;;;;;;;5010762;28;20042;-85
2023/04/26 04:50:07;;;;;;;13.05;9.63;;;;;;;;;;5014323;28;20038;-85
2023/04/26 04:52:33;;;;;;;15.88;11.02;;;;;;;;;;5014963;28;20386;-85
2023/04/26 04:55:00;;;;;;;12.10;10.10;;;;;;;;;;5014569;28;20096;-85
2023/04/26 04:57:25;;;;;;;11.65;10.32;;;;;;;;;;5015099;28;20389;-86
2023/04/26 04:59:51;;;;;;;13.20;11.43;;;;;;;;;;5015306;28;20042;-84
2023/04/26 05:02:16;;;;;;;15.73;11.40;;;;;;;;;;5014042;28;20159;-85
2023/04/26 05:04:41;;;;;;;12.40;10.82;;;;;;;;;;5014874;28;20466;-85
2023/04/26 05:07:08;;;;;;;15.63;11.13;;;;;;;;;;5014203;28;20496;-84
2023/04/26 05:09:34;;;;;;;14.65;11.25;;;;;;;;;;5014106;28;20524;-87
2023/04/26 05:11:59;;;;;;;13.60;11.02;;;;;;;;;;5019456;28;20042;-87
2023/04/26 05:14:25;;;;;;;15.30;11.07;;;;;;;;;;5016043;28;20117;-86
2023/04/26 05:16:50;;;;;;;12.70;10.98;;;;;;;;;;5034165;28;20045;-86
2023/04/26 05:19:15;;;;;;;18.25;11.68;;;;;;;;;;5034028;28;20072;-86
2023/04/26 05:21:41;;;;;;;12.18;10.48;;;;;;;;;;5033763;28;20124;-86
2023/04/26 05:24:06;;;;;;;15.25;11.75;;;;;;;;;;5034081;28;20394;-85
2023/04/26 05:26:34;;;;;;;14.90;11.45;;;;;;;;;;5034138;28;20042;-86
2023/04/26 05:28:59;;;;;;;17.33;12.18;;;;;;;;;;5033940;28;20056;-84
2023/04/26 05:31:25;;;;;;;14.57;11.75;;;;;;;;;;5033838;28;20124;-84
2023/04/26 05:33:51;;;;;;;22.90;12.88;;;;;;;;;;5025141;28;20049;-83
2023/04/26 05:36:16;;;;;;;20.20;12.20;;;;;;;;;;5014115;28;20041;-86
2023/04/26 05:38:41;;;;;;;21.02;12.05;;;;;;;;;;5015522;28;20498;-84
2023/04/26 05:41:07;;;;;;;19.85;12.13;;;;;;;;;;5014160;28;20414;-83
2023/04/26 05:43:33;;;;;;;15.55;12.80;;;;;;;;;;5014175;28;20045;-83
2023/04/26 05:45:59;;;;;;;16.08;12.90;;;;;;;;;;5014627;28;20502;-85
2023/04/26 05:48:24;;;;;;;14.52;12.23;;;;;;;;;;5016086;28;20156;-84
2023/04/26 05:50:51;;;;;;;17.13;12.32;;;;;;;;;;5018872;28;20498;-84
2023/04/26 05:53:20;;;;;;;14.55;12.68;;;;;;;;;;5013557;28;20536;-84
2023/04/26 05:55:46;;;;;;;16.25;12.18;;;;;;;;;;5014128;28;20038;-83
2023/04/26 05:58:11;;;;;;;17.90;11.73;;;;;;;;;;5026380;28;20416;-84
2023/04/26 06:00:39;;;;;;;15.27;12.18;;;;;;;;;;5032957;28;20045;-84
2023/04/26 06:03:05;;;;;;;13.67;11.80;;;;;;;;;;5033070;28;20457;-82
2023/04/26 06:05:30;;;;;;;16.13;11.35;;;;;;;;;;5033792;28;20284;-82
2023/04/26 06:07:56;;;;;;;13.05;11.02;;;;;;;;;;5032149;28;20045;-83
2023/04/26 06:10:21;;;;;;;18.10;11.20;;;;;;;;;;5015618;28;20528;-83
2023/04/26 06:12:47;;;;;;;14.63;11.18;;;;;;;;;;5027946;28;20121;-83
2023/04/26 06:15:13;;;;;;;15.45;11.57;;;;;;;;;;5013333;28;20058;-83
2023/04/26 06:17:39;;;;;;;14.40;11.77;;;;;;;;;;5021394;28;20053;-84
2023/04/26 06:20:05;;;;;;;24.23;12.18;;;;;;;;;;5032957;28;20045;-82
2023/04/26 06:22:31;;;;;;;18.25;12.10;;;;;;;;;;5015052;28;20048;-83
2023/04/26 06:24:56;;;;;;;14.18;12.00;;;;;;;;;;5033323;28;20125;-84
2023/04/26 06:27:21;;;;;;;43.33;14.63;;;;;;;;;;5026235;28;20053;-83
2023/04/26 06:29:47;;;;;;;23.35;12.90;;;;;;;;;;5013014;28;20065;-85
2023/04/26 06:32:12;;;;;;;57.88;13.15;;;;;;;;;;5020156;28;20049;-84
2023/04/26 06:34:38;;;;;;;15.15;10.90;;;;;;;;;;5033042;28;20045;-84
2023/04/26 06:37:03;;;;;;;18.33;13.93;;;;;;;;;;5031976;28;20497;-84
2023/04/26 06:39:29;;;;;;;19.92;14.68;;;;;;;;;;5020788;28;20034;-84
2023/04/26 06:41:54;;;;;;;25.02;16.80;;;;;;;;;;5017207;28;20077;-84
2023/04/26 06:44:20;;;;;;;19.88;15.07;;;;;;;;;;5025399;28;20022;-84
2023/04/26 06:46:45;;;;;;;20.70;14.70;;;;;;;;;;5025971;28;20084;-84
2023/04/26 06:49:11;;;;;;;18.35;12.93;;;;;;;;;;5035516;28;20563;-85
2023/04/26 06:51:36;;;;;;;17.52;13.80;;;;;;;;;;5023709;28;20133;-83
2023/04/26 06:54:02;;;;;;;19.70;15.93;;;;;;;;;;5037616;28;20025;-86
2023/04/26 06:56:27;;;;;;;25.08;15.30;;;;;;;;;;5016073;28;20042;-84
2023/04/26 06:59:04;;;;;;;24.70;16.30;;;;;;;;;;5022147;28;20037;-86
2023/04/26 07:01:32;;;;;;;27.38;17.48;;;;;;;;;;5019675;28;20125;-85
2023/04/26 07:03:58;;;;;;;34.13;19.17;;;;;;;;;;5020396;28;20124;-83
2023/04/26 07:06:25;;;;;;;37.08;19.42;;;;;;;;;;5022513;28;20200;-85
2023/04/26 07:08:50;;;;;;;29.83;17.48;;;;;;;;;;5022613;28;20029;-84
2023/04/26 07:11:16;;;;;;;26.48;17.92;;;;;;;;;;5031178;28;20440;-84
2023/04/26 07:13:41;;;;;;;28.15;17.88;;;;;;;;;;5025762;28;20496;-83
2023/04/26 07:16:06;;;;;;;28.33;17.67;;;;;;;;;;5028654;28;20160;-83
2023/04/26 07:18:32;;;;;;;24.73;17.83;;;;;;;;;;5025043;28;20091;-86
2023/04/26 07:20:57;;;;;;;21.00;14.57;;;;;;;;;;5038755;28;20041;-83
2023/04/26 07:23:23;;;;;;;22.20;13.68;;;;;;;;;;5007571;28;20049;-85
2023/04/26 07:25:48;;;;;;;17.35;13.60;;;;;;;;;;5024567;28;20448;-85
2023/04/26 07:28:14;;;;;;;19.25;13.05;;;;;;;;;;5025166;28;20072;-83
2023/04/26 07:30:40;;;;;;;22.92;14.63;;;;;;;;;;5022755;28;20425;-84
2023/04/26 07:33:05;;;;;;;20.15;13.45;;;;;;;;;;5024851;28;20080;-84
2023/04/26 07:35:33;;;;;;;25.35;15.70;;;;;;;;;;5025136;28;20475;-85
2023/04/26 07:37:58;;;;;;;21.98;15.75;;;;;;;;;;5014162;28;20069;-84
2023/04/26 07:40:25;;;;;;;13.07;11.02;;;;;;;;;;5012511;28;20075;-84
2023/04/26 07:42:50;;;;;;;11.63;9.75;;;;;;;;;;5025315;28;20068;-84
2023/04/26 07:45:16;;;;;;;12.48;9.00;;;;;;;;;;5018225;28;20069;-84
2023/04/26 07:47:42;;;;;;;8.75;7.13;;;;;;;;;;5034225;28;20044;-85
2023/04/26 07:50:09;;;;;;;7.03;6.32;;;;;;;;;;5023133;28;20069;-84
2023/04/26 07:52:34;;;;;;;7.97;5.80;;;;;;;;;;5024865;28;20041;-84
2023/04/26 07:54:59;;;;;;;5.68;4.78;;;;;;;;;;5024478;28;20075;-84
2023/04/26 07:57:25;;;;;;;5.03;4.28;;;;;;;;;;5021914;28;20041;-86
2023/04/26 07:59:51;;;;;;;4.00;3.60;;;;;;;;;;5023728;28;20056;-84
2023/04/26 08:02:16;;;;;;;5.25;4.75;;;;;;;;;;5024560;28;20521;-84
2023/04/26 08:04:48;;;;;;;4.93;4.25;;;;;;;;;;5022066;28;20128;-84
2023/04/26 08:07:13;;;;;;;6.20;4.68;;;;;;;;;;5023772;28;20049;-84
2023/04/26 08:09:39;;;;;;;7.25;4.65;;;;;;;;;;5024363;28;20099;-84
2023/04/26 08:12:04;;;;;;;5.45;3.95;;;;;;;;;;5023348;28;20049;-83
2023/04/26 08:14:30;;;;;;;5.15;4.00;;;;;;;;;;5024325;28;20049;-83
2023/04/26 08:16:55;;;;;;;14.40;5.30;;;;;;;;;;5024148;28;20061;-83
2023/04/26 08:19:21;;;;;;;7.88;4.68;;;;;;;;;;5024513;28;20569;-83
2023/04/26 08:21:46;;;;;;;7.22;3.92;;;;;;;;;;5024158;28;20041;-84
2023/04/26 08:24:12;;;;;;;8.90;4.10;;;;;;;;;;5025381;28;20156;-84
2023/04/26 08:26:37;;;;;;;6.53;3.50;;;;;;;;;;5023823;28;20580;-83
2023/04/26 08:29:03;;;;;;;7.00;3.15;;;;;;;;;;5024215;28;20087;-84
2023/04/26 08:31:28;;;;;;;8.73;3.30;;;;;;;;;;5024025;28;20830;-84
2023/04/26 08:33:53;;;;;;;6.82;3.20;;;;;;;;;;5025542;28;20481;-84
2023/04/26 08:36:19;;;;;;;7.95;2.58;;;;;;;;;;5023903;28;20077;-84
2023/04/26 08:38:45;;;;;;;7.25;2.42;;;;;;;;;;5018569;28;20782;-82
2023/04/26 08:41:15;;;;;;;7.57;1.65;;;;;;;;;;5013672;28;20545;-84
2023/04/26 08:43:41;;;;;;;6.20;1.73;;;;;;;;;;5021894;28;20045;-84
2023/04/26 08:46:11;;;;;;;7.30;1.80;;;;;;;;;;5023677;28;20049;-82
2023/04/26 08:48:36;;;;;;;9.85;1.90;;;;;;;;;;5022244;28;20041;-84
2023/04/26 08:51:04;;;;;;;8.18;2.15;;;;;;;;;;5015652;28;20048;-86
2023/04/26 08:53:30;;;;;;;5.93;1.80;;;;;;;;;;5019164;28;20052;-84
2023/04/26 08:55:56;;;;;;;5.38;1.88;;;;;;;;;;5023653;28;20045;-84
2023/04/26 08:58:22;;;;;;;6.85;1.77;;;;;;;;;;5003715;28;20583;-84
2023/04/26 09:00:49;;;;;;;4.75;1.63;;;;;;;;;;5024176;28;20049;-85
2023/04/26 09:03:14;;;;;;;5.15;1.50;;;;;;;;;;5018227;28;20107;-83
2023/04/26 09:05:44;;;;;;;6.07;1.30;;;;;;;;;;5031982;28;20049;-86
2023/04/26 09:08:14;;;;;;;9.63;1.23;;;;;;;;;;5021418;28;20049;-84
2023/04/26 09:10:40;;;;;;;2.72;1.10;;;;;;;;;;5000250;28;20484;-86
2023/04/26 09:13:06;;;;;;;3.53;1.08;;;;;;;;;;5020100;28;20128;-86
2023/04/26 09:15:31;;;;;;;5.45;0.70;;;;;;;;;;5019717;28;20504;-87
2023/04/26 09:18:15;;;;;;;1.90;0.88;;;;;;;;;;5025244;28;20445;-86
2023/04/26 09:20:40;;;;;;;1.73;0.63;;;;;;;;;;5011263;28;20053;-87
2023/04/26 09:23:08;;;;;;;2.97;0.88;;;;;;;;;;5015023;28;20557;-86
2023/04/26 09:25:34;;;;;;;4.68;0.70;;;;;;;;;;5010440;28;20053;-86
2023/04/26 09:28:02;;;;;;;5.43;0.98;;;;;;;;;;5013582;28;20037;-82
2023/04/26 09:30:28;;;;;;;9.07;1.30;;;;;;;;;;5018280;28;20084;-85
2023/04/26 09:32:59;;;;;;;4.13;1.00;;;;;;;;;;5022947;28;20069;-86
2023/04/26 09:35:31;;;;;;;5.32;1.10;;;;;;;;;;5023587;28;20050;-85
2023/04/26 09:38:02;;;;;;;5.90;1.85;;;;;;;;;;5039738;28;20075;-85
2023/04/26 09:40:39;;;;;;;5.38;1.20;;;;;;;;;;5026141;28;20140;-85
2023/04/26 09:43:08;;;;;;;6.20;1.52;;;;;;;;;;5025921;28;20312;-84
2023/04/26 09:46:00;;;;;;;6.05;1.30;;;;;;;;;;5026218;28;20409;-85
2023/04/26 09:48:30;;;;;;;5.80;1.45;;;;;;;;;;5022297;28;20057;-86
2023/04/26 09:50:58;;;;;;;7.28;1.75;;;;;;;;;;5040039;28;20570;-84
2023/04/26 09:53:47;;;;;;;8.75;1.38;;;;;;;;;;5016320;28;20057;-85
2023/04/26 09:56:17;;;;;;;7.45;1.60;;;;;;;;;;5026191;28;20050;-85
2023/04/26 09:58:43;;;;;;;6.32;1.60;;;;;;;;;;5026173;28;20429;-86
2023/04/26 10:01:10;;;;;;;6.88;1.58;;;;;;;;;;5026448;28;20056;-86
2023/04/26 10:03:36;;;;;;;8.93;1.50;;;;;;;;;;5026872;28;20065;-87
2023/04/26 10:06:02;;;;;;;5.70;1.60;;;;;;;;;;5026856;28;20045;-87
2023/04/26 10:08:29;;;;;;;12.45;1.83;;;;;;;;;;5026341;28;20515;-87
2023/04/26 10:10:55;;;;;;;9.40;2.10;;;;;;;;;;5026022;28;20051;-87
2023/04/26 10:13:21;;;;;;;8.63;2.22;;;;;;;;;;5025361;28;20045;-88
2023/04/26 10:15:47;;;;;;;7.60;1.90;;;;;;;;;;5007971;28;20045;-88
2023/04/26 10:18:13;;;;;;;11.25;2.03;;;;;;;;;;5038859;28;20102;-87
2023/04/26 10:20:42;;;;;;;11.73;2.03;;;;;;;;;;5027145;28;20552;-88
2023/04/26 10:23:16;;;;;;;10.18;2.08;;;;;;;;;;5025941;28;20129;-86
2023/04/26 10:25:41;;;;;;;8.25;2.05;;;;;;;;;;5017290;28;20409;-87
2023/04/26 10:28:07;;;;;;;8.90;2.45;;;;;;;;;;5024915;28;20037;-87
2023/04/26 10:30:53;;;;;;;11.88;2.00;;;;;;;;;;5025848;28;20620;-87
2023/04/26 10:33:19;;;;;;;11.13;2.30;;;;;;;;;;5026038;28;20053;-87
2023/04/26 10:36:20;;;;;;;9.90;2.65;;;;;;;;;;5024985;28;20052;-87
2023/04/26 10:39:17;;;;;;;10.93;2.33;;;;;;;;;;4921397;29;20126;-86
2023/04/26 10:41:42;;;;;;;;;;;;;;;;;;4936849;28;20052;-85
2023/04/26 10:44:44;;;;;;;6.75;1.95;;;;;;;;;;4923964;29;19942;-86
2023/04/26 10:47:22;;;;;;;8.68;2.35;;;;;;;;;;4848733;29;20061;-87
2023/04/26 10:49:48;;;;;;;7.97;2.50;;;;;;;;;;4849508;29;20072;-87
2023/04/26 10:52:17;;;;;;;10.52;2.25;;;;;;;;;;4849080;29;20377;-85
2023/04/26 10:54:46;;;;;;;;;;;;;;;;;;4849782;29;20053;-85
2023/04/26 10:57:11;;;;;;;;;;;;;;;;;;4852646;29;20118;-86
2023/04/26 10:59:37;;;;;;;6.72;2.00;;;;;;;;;;4849192;29;20008;-85
2023/04/26 11:02:02;;;;;;;9.45;3.25;;;;;;;;;;4863932;28;20054;-86
2023/04/26 11:04:53;;;;;;;9.57;2.25;;;;;;;;;;5041053;28;20118;-87
2023/04/26 11:07:38;;;;;;;7.80;2.20;;;;;;;;;;5024715;28;20480;-86
2023/04/26 11:10:09;;;;;;;9.15;2.40;;;;;;;;;;5042104;28;20048;-88
2023/04/26 11:12:34;;;;;;;6.68;2.50;;;;;;;;;;5023907;28;20060;-88
2023/04/26 11:14:59;;;;;;;6.93;2.30;;;;;;;;;;5023034;28;20045;-86
2023/04/26 11:17:25;;;;;;;11.60;2.53;;;;;;;;;;5023027;28;20041;-85
2023/04/26 11:19:50;;;;;;;8.13;2.03;;;;;;;;;;5023668;28;20045;-87
2023/04/26 11:22:21;;;;;;;8.57;1.80;;;;;;;;;;5032619;28;20041;-86
2023/04/26 11:24:47;;;;;;;7.90;2.05;;;;;;;;;;5027196;28;20128;-87
2023/04/26 11:27:12;;;;;;;5.35;1.20;;;;;;;;;;5023936;28;20140;-87
2023/04/26 11:29:38;;;;;;;4.95;1.70;;;;;;;;;;5024402;28;20045;-87
2023/04/26 11:32:03;;;;;;;6.68;2.03;;;;;;;;;;5006635;28;20044;-85
2023/04/26 11:34:33;;;;;;;6.05;2.00;;;;;;;;;;5021550;28;20049;-87
2023/04/26 11:36:58;;;;;;;6.53;1.90;;;;;;;;;;5024552;28;20046;-86
2023/04/26 11:39:24;;;;;;;12.00;3.92;;;;;;;;;;5024178;28;20037;-87
2023/04/26 11:41:50;;;;;;;9.10;3.63;;;;;;;;;;5024027;28;20156;-88
2023/04/26 11:44:19;;;;;;;6.93;1.73;;;;;;;;;;5012212;28;20042;-87
2023/04/26 11:46:49;;;;;;;5.63;1.80;;;;;;;;;;5019672;28;20045;-87
2023/04/26 11:49:16;;;;;;;9.55;2.90;;;;;;;;;;5018699;28;20068;-87
2023/04/26 11:51:42;;;;;;;11.13;2.78;;;;;;;;;;5024198;28;20065;-87
2023/04/26 11:54:07;;;;;;;8.52;2.38;;;;;;;;;;5022850;28;20226;-86
2023/04/26 11:56:33;;;;;;;9.32;2.80;;;;;;;;;;5023475;28;20611;-86
2023/04/26 11:58:59;;;;;;;12.65;3.15;;;;;;;;;;5022545;28;20041;-86
2023/04/26 12:01:28;;;;;;;10.70;2.85;;;;;;;;;;5023119;28;20050;-84
2023/04/26 12:03:58;;;;;;;9.70;3.22;;;;;;;;;;5024070;28;20042;-85
2023/04/26 12:06:45;;;;;;;12.73;3.40;;;;;;;;;;5022873;28;20057;-85
2023/04/26 12:09:11;;;;;;;11.40;3.35;;;;;;;;;;5022985;28;20041;-87
2023/04/26 12:11:40;;;;;;;14.65;3.20;;;;;;;;;;5023841;28;20391;-85
2023/04/26 12:14:08;;;;;;;9.68;3.10;;;;;;;;;;5005553;28;20863;-86
2023/04/26 12:16:36;;;;;;;13.25;2.90;;;;;;;;;;5023764;28;20056;-87
2023/04/26 12:19:05;;;;;;;8.98;2.20;;;;;;;;;;5013282;28;20581;-86
2023/04/26 12:21:40;;;;;;;6.28;2.28;;;;;;;;;;5022860;28;20048;-86
2023/04/26 12:24:05;;;;;;;11.63;2.85;;;;;;;;;;5004600;28;20048;-86
2023/04/26 12:26:43;;;;;;;8.70;2.45;;;;;;;;;;5023457;28;20046;-87
2023/04/26 12:29:09;;;;;;;7.50;2.17;;;;;;;;;;5022063;28;20076;-84
2023/04/26 12:31:34;;;;;;;5.47;1.88;;;;;;;;;;5023746;28;21310;-86
2023/04/26 12:34:00;;;;;;;5.50;1.83;;;;;;;;;;5023616;28;20046;-86
2023/04/26 12:36:27;;;;;;;5.03;2.22;;;;;;;;;;5022920;28;20390;-86
2023/04/26 12:38:52;;;;;;;5.95;1.65;;;;;;;;;;5023261;28;20049;-87
2023/04/26 12:41:17;;;;;;;4.70;1.33;;;;;;;;;;5022642;28;20057;-87
2023/04/26 12:43:43;;;;;;;6.55;1.15;;;;;;;;;;5023617;28;20206;-85
2023/04/26 12:46:08;;;;;;;3.75;1.35;;;;;;;;;;5023157;28;20057;-86
2023/04/26 12:48:34;;;;;;;3.85;1.20;;;;;;;;;;5026715;28;20046;-85
2023/04/26 12:50:59;;;;;;;4.70;1.10;;;;;;;;;;5023034;28;20049;-86
2023/04/26 12:53:24;;;;;;;3.95;0.95;;;;;;;;;;5022589;28;20071;-87
2023/04/26 12:55:50;;;;;;;4.80;1.20;;;;;;;;;;5021580;28;20047;-86
2023/04/26 12:58:15;;;;;;;3.20;1.27;;;;;;;;;;5021547;28;20511;-84
2023/04/26 13:00:40;;;;;;;2.15;0.65;;;;;;;;;;5021826;28;20041;-87
2023/04/26 13:03:06;;;;;;;1.63;0.57;;;;;;;;;;5019311;28;20045;-85
2023/04/26 13:05:31;;;;;;;0.70;0.40;;;;;;;;;;5021387;28;20049;-85
2023/04/26 13:07:59;;;;;;;1.90;0.40;;;;;;;;;;5021693;28;20122;-85
2023/04/26 13:10:24;;;;;;;1.13;0.40;;;;;;;;;;5023770;28;20231;-85
2023/04/26 13:12:50;;;;;;;1.20;0.35;;;;;;;;;;5025709;28;20144;-86
2023/04/26 13:15:15;;;;;;;1.80;0.63;;;;;;;;;;5025282;28;20042;-85
2023/04/26 13:17:43;;;;;;;3.38;0.80;;;;;;;;;;5025797;28;20472;-85
2023/04/26 13:20:08;;;;;;;2.95;0.90;;;;;;;;;;5024527;28;20049;-84
2023/04/26 13:22:34;;;;;;;2.25;0.70;;;;;;;;;;5024081;28;20042;-85
2023/04/26 13:24:59;;;;;;;1.58;0.60;;;;;;;;;;5021641;28;20132;-83
2023/04/26 13:27:25;;;;;;;3.53;0.95;;;;;;;;;;5025008;28;20111;-85
2023/04/26 13:29:51;;;;;;;1.25;0.50;;;;;;;;;;5025599;28;20571;-83
2023/04/26 13:32:17;;;;;;;1.50;0.50;;;;;;;;;;5024461;28;20053;-82
2023/04/26 13:34:44;;;;;;;1.65;0.60;;;;;;;;;;5024742;28;20042;-83
2023/04/26 13:37:10;;;;;;;1.38;0.60;;;;;;;;;;5024430;28;20041;-83
2023/04/26 13:39:35;;;;;;;1.58;0.70;;;;;;;;;;5026382;28;20068;-83
2023/04/26 13:42:01;;;;;;;4.22;0.50;;;;;;;;;;5026058;28;20561;-83
2023/04/26 13:44:27;;;;;;;0.63;0.30;;;;;;;;;;5025133;28;20041;-83
2023/04/26 13:46:55;;;;;;;1.75;0.30;;;;;;;;;;5023039;28;20076;-81
2023/04/26 13:49:21;;;;;;;1.83;0.57;;;;;;;;;;5036220;28;20037;-84
2023/04/26 13:51:47;;;;;;;;;;;;;;;;;;5006902;28;20103;-84
2023/04/26 13:54:12;;;;;;;;;;;;;;;;;;5006060;28;19920;-83
2023/04/26 13:56:38;;;;;;;;;;;;;;;;;;5025524;28;19944;-82
2023/04/26 13:59:05;;;;;;;;;;;;;;;;;;5024682;28;19947;-83
2023/04/26 14:01:32;;;;;;;;;;;;;;;;;;5033571;28;19921;-84
2023/04/26 14:03:57;;;;;;;;;;;;;;;;;;5036566;28;19921;-83
2023/04/26 14:06:22;;;;;;;;;;;;;;;;;;5024274;28;20420;-84
2023/04/26 14:08:48;;;;;;;;;;;;;;;;;;5026000;28;19932;-83
2023/04/26 14:11:13;;;;;;;;;;;;;;;;;;5031863;28;19947;-83
2023/04/26 14:13:39;;;;;;;;;;;;;;;;;;5043161;28;19964;-83
2023/04/26 14:16:04;;;;;;;;;;;;;;;;;;5033912;28;20296;-82
2023/04/26 14:18:30;;;;;;;;;;;;;;;;;;5044287;28;20011;-82
2023/04/26 14:20:55;;;;;;;;;;;;;;;;;;5046485;28;19920;-81
2023/04/26 14:23:20;;;;;;;;;;;;;;;;;;5045454;28;20380;-82
2023/04/26 14:25:49;;;;;;;;;;;;;;;;;;5044818;28;19921;-81
2023/04/26 14:28:15;;;;;;;;;;;;;;;;;;5039920;28;20344;-82
2023/04/26 14:30:40;;;;;;;;;;;;;;;;;;5039385;28;19936;-83
2023/04/26 14:33:05;;;;;;;;;;;;;;;;;;5031163;28;20040;-80
2023/04/26 14:35:30;;;;;;;;;;;;;;;;;;5040157;28;19970;-81
2023/04/26 14:37:56;;;;;;;;;;;;;;;;;;5015646;28;19927;-81
2023/04/26 14:40:21;;;;;;;;;;;;;;;;;;5024954;28;19928;-81